Time;durP1;ratioP1;P1;durP2;ratioP2;P2;SDS_P1;SDS_P2;PMS_P1;PMS_P2;Temp;Humidity;BMP_temperature;BMP_pressure;BME280_temperature;BME280_humidity;BME280_pressure;Samples;Min_cycle;Max_cycle;Signal;HPM_P1;HPM_P2
2022/12/13 00:01:35;;;;;;;20.63;11.13;;;0.70;99.90;;;;;;7393091;19;20602;-80
2022/12/13 00:04:04;;;;;;;18.97;10.03;;;0.50;99.90;;;;;;7394480;19;20138;-79
2022/12/13 00:06:30;;;;;;;19.37;10.83;;;0.60;99.90;;;;;;7392572;19;20579;-78
2022/12/13 00:08:57;;;;;;;21.87;10.70;;;0.60;99.90;;;;;;7393582;19;20689;-79
2022/12/13 00:11:23;;;;;;;17.43;10.60;;;0.70;99.90;;;;;;7394873;19;20139;-77
2022/12/13 00:13:49;;;;;;;22.87;11.87;;;0.70;99.90;;;;;;7393655;19;20222;-78
2022/12/13 00:16:17;;;;;;;20.13;11.80;;;0.70;99.90;;;;;;7393881;19;20139;-78
2022/12/13 00:18:47;;;;;;;19.10;10.20;;;0.70;99.90;;;;;;7392318;19;20146;-79
2022/12/13 00:21:15;;;;;;;18.70;10.83;;;0.70;99.90;;;;;;7394554;19;20565;-78
2022/12/13 00:23:40;;;;;;;21.53;10.90;;;0.30;99.90;;;;;;7395101;19;20135;-78
2022/12/13 00:26:10;;;;;;;19.77;9.97;;;0.30;99.90;;;;;;7392783;19;20149;-80
2022/12/13 00:28:36;;;;;;;20.90;11.07;;;0.40;99.90;;;;;;7395156;19;20161;-77
2022/12/13 00:31:05;;;;;;;22.50;11.53;;;0.00;99.90;;;;;;7391752;19;20622;-77
2022/12/13 00:33:31;;;;;;;19.77;10.50;;;0.10;99.90;;;;;;7392035;19;20597;-78
2022/12/13 00:35:57;;;;;;;20.33;10.53;;;0.40;99.90;;;;;;7392773;19;20146;-77
2022/12/13 00:38:23;;;;;;;18.43;10.80;;;0.50;99.90;;;;;;7392484;19;20139;-77
2022/12/13 00:40:50;;;;;;;18.60;10.53;;;0.40;99.90;;;;;;7391942;19;20512;-79
2022/12/13 00:43:16;;;;;;;22.73;10.83;;;0.20;99.90;;;;;;7393933;19;20142;-79
2022/12/13 00:45:42;;;;;;;20.97;10.53;;;0.30;99.90;;;;;;7394134;19;20145;-78
2022/12/13 00:48:09;;;;;;;19.70;11.17;;;0.40;99.90;;;;;;7394287;19;20138;-79
2022/12/13 00:50:37;;;;;;;21.17;10.83;;;0.30;99.90;;;;;;7391548;19;20153;-79
2022/12/13 00:53:03;;;;;;;22.20;10.50;;;0.00;99.90;;;;;;7391817;19;20237;-78
2022/12/13 00:55:28;;;;;;;17.73;10.73;;;-0.50;99.90;;;;;;7390410;19;20178;-77
2022/12/13 00:57:54;;;;;;;22.13;10.90;;;-0.80;99.90;;;;;;7391579;19;20485;-79
2022/12/13 01:00:20;;;;;;;19.00;11.47;;;-0.60;99.90;;;;;;7391331;19;20175;-78
2022/12/13 01:02:46;;;;;;;20.37;10.47;;;-0.10;99.90;;;;;;7391172;19;20146;-77
2022/12/13 01:05:12;;;;;;;22.33;10.57;;;0.00;99.90;;;;;;7393203;19;20476;-78
2022/12/13 01:07:39;;;;;;;18.50;10.47;;;-0.30;99.90;;;;;;7390957;19;20147;-78
2022/12/13 01:10:06;;;;;;;17.03;9.77;;;-0.90;99.90;;;;;;7393356;19;20150;-77
2022/12/13 01:12:36;;;;;;;17.77;10.70;;;-1.10;99.90;;;;;;7391311;19;20138;-78
2022/12/13 01:15:03;;;;;;;17.67;10.60;;;-0.50;99.90;;;;;;7393070;19;20155;-78
2022/12/13 01:17:29;;;;;;;18.93;10.47;;;-0.20;99.90;;;;;;7392704;19;20139;-78
2022/12/13 01:19:55;;;;;;;16.07;9.97;;;0.20;99.90;;;;;;7390249;19;20154;-78
2022/12/13 01:22:21;;;;;;;19.33;10.67;;;0.30;99.90;;;;;;7390081;19;20214;-79
2022/12/13 01:24:47;;;;;;;18.87;10.47;;;0.40;99.90;;;;;;7390148;19;20218;-77
2022/12/13 01:27:14;;;;;;;20.97;11.77;;;0.20;99.90;;;;;;7390056;19;20150;-78
2022/12/13 01:29:39;;;;;;;20.97;11.23;;;-0.10;99.90;;;;;;7390738;19;20620;-77
2022/12/13 01:32:05;;;;;;;21.40;11.07;;;0.10;99.90;;;;;;7391778;19;20138;-78
2022/12/13 01:34:31;;;;;;;17.53;9.60;;;0.10;99.90;;;;;;7389906;19;20479;-78
2022/12/13 01:36:57;;;;;;;19.30;10.23;;;0.30;99.90;;;;;;7391336;19;20155;-79
2022/12/13 01:39:23;;;;;;;22.00;10.43;;;0.30;99.90;;;;;;7389540;19;20484;-78
2022/12/13 01:41:58;;;;;;;19.53;10.23;;;0.40;99.90;;;;;;7392725;19;20127;-78
2022/12/13 01:44:51;;;;;;;17.33;10.50;;;0.20;99.90;;;;;;7388774;19;20205;-77
2022/12/13 01:47:26;;;;;;;18.67;10.70;;;0.40;99.90;;;;;;7391772;19;20147;-78
2022/12/13 01:49:54;;;;;;;18.40;9.90;;;0.40;99.90;;;;;;7390870;19;20532;-78
2022/12/13 01:52:20;;;;;;;19.17;10.43;;;0.50;99.90;;;;;;7391133;19;20146;-78
2022/12/13 01:54:49;;;;;;;18.37;10.53;;;0.50;99.90;;;;;;7389694;19;20146;-78
2022/12/13 01:57:18;;;;;;;23.10;10.40;;;0.50;99.90;;;;;;7389035;19;20149;-78
2022/12/13 01:59:46;;;;;;;22.90;10.27;;;0.50;99.90;;;;;;7384804;19;20142;-79
2022/12/13 02:02:13;;;;;;;21.33;10.73;;;0.40;99.90;;;;;;7389908;19;20146;-78
2022/12/13 02:04:47;;;;;;;16.03;9.60;;;0.10;99.90;;;;;;7389506;19;20150;-78
2022/12/13 02:07:17;;;;;;;19.00;10.40;;;-0.20;99.90;;;;;;7393431;19;20131;-77
2022/12/13 02:09:43;;;;;;;19.83;10.33;;;-0.10;99.90;;;;;;7392052;19;20134;-79
2022/12/13 02:12:11;;;;;;;18.97;11.23;;;-0.20;99.90;;;;;;7390984;19;20137;-78
2022/12/13 02:14:39;;;;;;;20.13;10.60;;;0.10;99.90;;;;;;7389327;19;20137;-78
2022/12/13 02:17:28;;;;;;;19.87;11.30;;;-0.10;99.90;;;;;;7389020;19;20130;-79
2022/12/13 02:19:59;;;;;;;19.37;10.30;;;-0.10;99.90;;;;;;7391526;19;20142;-78
2022/12/13 02:22:44;;;;;;;21.30;10.93;;;-0.10;99.90;;;;;;7391913;19;20163;-78
2022/12/13 02:25:40;;;;;;;21.87;10.70;;;-0.10;99.90;;;;;;7392597;19;20198;-77
2022/12/13 02:28:15;;;;;;;17.27;10.40;;;0.10;99.90;;;;;;7389550;19;20177;-78
2022/12/13 02:30:45;;;;;;;19.40;11.13;;;0.20;99.90;;;;;;7389069;19;20578;-78
2022/12/13 02:33:21;;;;;;;19.40;10.90;;;0.00;99.90;;;;;;7391256;19;20604;-79
2022/12/13 02:36:00;;;;;;;19.30;10.93;;;-0.10;99.90;;;;;;7389673;19;20149;-78
2022/12/13 02:38:34;;;;;;;22.73;11.53;;;-0.10;99.90;;;;;;7387844;19;20139;-78
2022/12/13 02:41:25;;;;;;;18.33;10.30;;;-0.50;99.90;;;;;;7398011;19;20597;-78
2022/12/13 02:44:04;;;;;;;18.97;10.90;;;-0.30;99.90;;;;;;7397360;19;20142;-77
2022/12/13 02:46:35;;;;;;;20.13;10.27;;;0.00;99.90;;;;;;7397218;19;20134;-76
2022/12/13 02:49:04;;;;;;;20.73;11.07;;;-0.90;99.90;;;;;;7399391;19;20476;-78
2022/12/13 02:51:31;;;;;;;20.37;10.97;;;-0.60;99.90;;;;;;7397815;19;20648;-78
2022/12/13 02:53:56;;;;;;;20.60;11.13;;;-0.30;99.90;;;;;;7398638;19;20261;-78
2022/12/13 02:56:22;;;;;;;21.13;11.07;;;-0.10;99.90;;;;;;7394137;19;20166;-78
2022/12/13 02:58:53;;;;;;;19.13;10.70;;;-0.10;99.90;;;;;;7394121;19;20142;-79
2022/12/13 03:01:28;;;;;;;18.70;11.70;;;0.00;99.90;;;;;;7390158;19;20573;-77
2022/12/13 03:04:22;;;;;;;17.17;10.50;;;0.10;99.90;;;;;;7397386;19;20602;-78
2022/12/13 03:07:11;;;;;;;16.43;10.37;;;-0.10;99.90;;;;;;7397811;19;20138;-78
2022/12/13 03:09:58;;;;;;;18.83;9.93;;;-0.60;99.90;;;;;;7397793;19;20155;-78
2022/12/13 03:15:20;;;;;;;21.73;10.93;;;-0.40;99.90;;;;;;7394458;19;20158;-79
2022/12/13 03:17:55;;;;;;;20.30;11.47;;;-0.30;99.90;;;;;;7393414;19;20573;-79
2022/12/13 03:20:26;;;;;;;22.37;12.03;;;-0.50;99.90;;;;;;7395676;19;20158;-78
2022/12/13 03:22:53;;;;;;;22.00;11.00;;;-0.80;99.90;;;;;;7396005;19;20556;-79
2022/12/13 03:25:20;;;;;;;18.80;10.70;;;-0.50;99.90;;;;;;7396924;19;20161;-79
2022/12/13 03:27:45;;;;;;;19.33;11.20;;;-0.20;99.90;;;;;;7395348;19;20214;-78
2022/12/13 03:30:12;;;;;;;18.73;10.53;;;-0.10;99.90;;;;;;7396413;19;20155;-79
2022/12/13 03:32:37;;;;;;;17.83;10.20;;;-0.10;99.90;;;;;;7396102;19;20135;-76
2022/12/13 03:35:04;;;;;;;18.23;10.57;;;-0.20;99.90;;;;;;7395616;19;20145;-79
2022/12/13 03:37:29;;;;;;;18.03;10.63;;;0.00;99.90;;;;;;7393949;19;20138;-79
2022/12/13 03:39:56;;;;;;;18.50;10.33;;;0.00;99.90;;;;;;7390702;19;20142;-78
2022/12/13 03:42:22;;;;;;;17.27;10.83;;;0.00;99.90;;;;;;7394549;19;20158;-79
2022/12/13 03:44:47;;;;;;;18.70;11.67;;;-0.10;99.90;;;;;;7396014;19;20143;-78
2022/12/13 03:47:14;;;;;;;17.27;10.87;;;-0.10;99.90;;;;;;7394206;19;20131;-79
2022/12/13 03:49:39;;;;;;;21.63;11.57;;;-0.10;99.90;;;;;;7393172;19;20131;-77
2022/12/13 03:52:05;;;;;;;20.43;10.97;;;-0.10;99.90;;;;;;7392169;19;20151;-79
2022/12/13 03:54:32;;;;;;;21.37;10.70;;;0.00;99.90;;;;;;7392990;19;20131;-80
2022/12/13 03:56:59;;;;;;;20.67;11.30;;;0.00;99.90;;;;;;7393263;19;20145;-78
2022/12/13 03:59:25;;;;;;;21.87;11.23;;;-0.40;99.90;;;;;;7393005;19;20146;-78
2022/12/13 04:01:50;;;;;;;21.10;10.87;;;-0.40;99.90;;;;;;7394087;19;20135;-78
2022/12/13 04:04:16;;;;;;;22.13;11.23;;;-0.30;99.90;;;;;;7392897;19;20231;-78
2022/12/13 04:06:42;;;;;;;19.60;10.57;;;-0.30;99.90;;;;;;7394409;19;20223;-78
2022/12/13 04:09:08;;;;;;;20.57;11.00;;;-0.30;99.90;;;;;;7392950;19;20135;-77
2022/12/13 04:14:18;;;;;;;18.23;11.10;;;-0.80;99.90;;;;;;7392746;19;20146;-79
2022/12/13 04:16:44;;;;;;;19.87;10.20;;;-0.80;99.90;;;;;;7392788;19;20152;-78
2022/12/13 04:19:11;;;;;;;22.80;11.77;;;-1.30;99.90;;;;;;7391446;19;20166;-78
2022/12/13 04:21:36;;;;;;;19.87;10.50;;;-1.10;99.90;;;;;;7393342;19;20135;-79
2022/12/13 04:24:02;;;;;;;20.20;10.87;;;-0.80;99.90;;;;;;7390976;19;20126;-79
2022/12/13 04:26:28;;;;;;;19.33;10.63;;;-0.50;99.90;;;;;;7392714;19;20119;-80
2022/12/13 04:28:55;;;;;;;20.07;10.93;;;-0.40;99.90;;;;;;7394020;19;20165;-78
2022/12/13 04:31:21;;;;;;;18.87;10.83;;;-0.40;99.90;;;;;;7394667;19;20205;-78
2022/12/13 04:33:47;;;;;;;18.77;10.80;;;-0.40;99.90;;;;;;7392483;19;20150;-79
2022/12/13 04:36:18;;;;;;;24.67;11.00;;;-0.50;99.90;;;;;;7389941;19;20198;-79
2022/12/13 04:38:45;;;;;;;15.90;10.33;;;-0.40;99.90;;;;;;7392185;19;20147;-79
2022/12/13 04:41:17;;;;;;;20.57;11.00;;;-0.60;99.90;;;;;;7394382;19;20138;-79
2022/12/13 04:43:43;;;;;;;22.07;10.60;;;-0.50;99.90;;;;;;7394257;19;20142;-79
2022/12/13 04:46:09;;;;;;;17.70;10.40;;;-0.50;99.90;;;;;;7392211;19;20483;-77
2022/12/13 04:48:35;;;;;;;21.30;10.80;;;-0.50;99.90;;;;;;7394263;19;20146;-78
2022/12/13 04:51:01;;;;;;;20.97;10.67;;;-0.70;99.90;;;;;;7392698;19;20146;-79
2022/12/13 04:53:29;;;;;;;21.20;11.13;;;-0.90;99.90;;;;;;7390947;19;20145;-79
2022/12/13 04:55:55;;;;;;;19.97;10.87;;;-0.70;99.90;;;;;;7391419;19;20166;-79
2022/12/13 04:58:20;;;;;;;16.97;9.63;;;-1.10;99.90;;;;;;7389899;19;20131;-78
2022/12/13 05:00:46;;;;;;;20.93;10.63;;;-1.20;99.90;;;;;;7392000;19;20179;-79
2022/12/13 05:03:12;;;;;;;22.00;10.20;;;-1.00;99.90;;;;;;7391155;19;20142;-77
2022/12/13 05:05:40;;;;;;;19.60;10.50;;;-0.80;99.90;;;;;;7393714;19;20139;-78
2022/12/13 05:08:07;;;;;;;18.17;10.20;;;-0.70;99.90;;;;;;7391914;19;20466;-79
2022/12/13 05:10:33;;;;;;;22.47;10.03;;;-1.20;99.90;;;;;;7393692;19;20134;-81
2022/12/13 05:13:00;;;;;;;19.23;11.27;;;-1.10;99.90;;;;;;7393012;19;20135;-78
2022/12/13 05:15:27;;;;;;;19.07;11.07;;;-1.00;99.90;;;;;;7391651;19;20149;-79
2022/12/13 05:17:52;;;;;;;21.07;10.63;;;-0.90;99.90;;;;;;7391962;19;20553;-77
2022/12/13 05:20:18;;;;;;;18.83;11.20;;;-0.80;99.90;;;;;;7392428;19;20155;-78
2022/12/13 05:22:44;;;;;;;17.03;10.33;;;-0.60;99.90;;;;;;7392262;19;20207;-79
2022/12/13 05:25:09;;;;;;;21.23;10.60;;;-0.60;99.90;;;;;;7390080;19;20134;-79
2022/12/13 05:27:36;;;;;;;20.17;10.70;;;-0.80;99.90;;;;;;7391132;19;20131;-78
2022/12/13 05:30:02;;;;;;;17.67;10.47;;;-0.60;99.90;;;;;;7393268;19;20130;-77
2022/12/13 05:32:35;;;;;;;17.90;10.27;;;-0.40;99.90;;;;;;7390820;19;20456;-78
2022/12/13 05:35:01;;;;;;;16.27;10.20;;;-0.60;99.90;;;;;;7392396;19;20131;-79
2022/12/13 05:37:27;;;;;;;20.33;10.33;;;-0.50;99.90;;;;;;7390183;19;20564;-79
2022/12/13 05:39:53;;;;;;;21.63;10.37;;;-0.30;99.90;;;;;;7392233;19;20146;-78
2022/12/13 05:42:18;;;;;;;17.23;9.63;;;-0.20;99.90;;;;;;7391174;19;20131;-80
2022/12/13 05:44:44;;;;;;;18.47;10.40;;;-0.20;99.90;;;;;;7391938;19;20145;-78
2022/12/13 05:47:10;;;;;;;17.93;11.10;;;-0.40;99.90;;;;;;7391116;19;20158;-78
2022/12/13 05:49:35;;;;;;;23.60;11.03;;;-0.50;99.90;;;;;;7390809;19;20150;-77
2022/12/13 05:52:01;;;;;;;20.90;10.73;;;-0.80;99.90;;;;;;7390182;19;20135;-81
2022/12/13 05:54:30;;;;;;;22.43;11.27;;;-0.70;99.90;;;;;;7388462;19;20210;-80
2022/12/13 05:56:56;;;;;;;21.47;11.00;;;-0.70;99.90;;;;;;7390726;19;20150;-79
2022/12/13 05:59:22;;;;;;;21.50;11.53;;;-0.50;99.90;;;;;;7391497;19;20130;-78
2022/12/13 06:01:47;;;;;;;18.40;11.37;;;-0.70;99.90;;;;;;7390752;19;20567;-79
2022/12/13 06:04:13;;;;;;;23.00;12.07;;;-0.80;99.90;;;;;;7390651;19;20249;-79
2022/12/13 06:06:39;;;;;;;21.23;11.30;;;-0.60;99.90;;;;;;7390660;19;20139;-79
2022/12/13 06:09:06;;;;;;;22.43;12.07;;;-0.70;99.90;;;;;;7389888;19;20127;-79
2022/12/13 06:11:32;;;;;;;18.30;10.93;;;-0.80;99.90;;;;;;7389714;19;20146;-77
2022/12/13 06:13:57;;;;;;;23.73;10.60;;;-0.80;99.90;;;;;;7393906;19;20139;-79
2022/12/13 06:16:23;;;;;;;19.63;10.70;;;-0.70;99.90;;;;;;7398201;19;20253;-78
2022/12/13 06:18:49;;;;;;;21.90;11.43;;;-0.60;99.90;;;;;;7396738;19;20146;-80
2022/12/13 06:21:15;;;;;;;19.53;9.77;;;-0.40;99.90;;;;;;7400875;19;20150;-80
2022/12/13 06:23:41;;;;;;;21.37;11.00;;;-0.50;99.90;;;;;;7400537;19;20150;-78
2022/12/13 06:26:07;;;;;;;20.07;10.37;;;-0.40;99.90;;;;;;7403522;19;20142;-78
2022/12/13 06:28:33;;;;;;;18.90;9.63;;;-0.50;99.90;;;;;;7405615;19;20171;-78
2022/12/13 06:31:00;;;;;;;19.30;9.90;;;-0.40;99.90;;;;;;7402350;19;20142;-78
2022/12/13 06:33:26;;;;;;;19.70;10.63;;;-0.40;99.90;;;;;;7405706;19;20202;-78
2022/12/13 06:35:55;;;;;;;17.50;9.97;;;-0.30;99.90;;;;;;7403962;19;20135;-78
2022/12/13 06:38:21;;;;;;;19.47;9.90;;;-0.60;99.90;;;;;;7404006;19;20138;-79
2022/12/13 06:40:47;;;;;;;16.50;9.87;;;-0.90;99.90;;;;;;7401975;19;20135;-77
2022/12/13 06:43:13;;;;;;;16.37;9.80;;;-0.70;99.90;;;;;;7403240;19;20142;-79
2022/12/13 06:45:41;;;;;;;16.63;9.97;;;-0.70;99.90;;;;;;7401197;19;20648;-78
2022/12/13 06:48:07;;;;;;;18.93;10.00;;;-0.50;99.90;;;;;;7400794;19;20231;-80
2022/12/13 06:50:33;;;;;;;19.97;9.93;;;-0.50;99.90;;;;;;7398185;19;20521;-81
2022/12/13 06:52:59;;;;;;;20.97;10.80;;;-0.50;99.90;;;;;;7394072;19;20143;-79
2022/12/13 06:55:24;;;;;;;18.53;9.67;;;-0.60;99.90;;;;;;7397873;19;20146;-78
2022/12/13 06:57:50;;;;;;;18.63;9.50;;;-0.60;99.90;;;;;;7399860;19;20561;-78
2022/12/13 07:00:16;;;;;;;17.53;10.93;;;-0.60;99.90;;;;;;7396877;19;20146;-78
2022/12/13 07:02:42;;;;;;;19.13;10.60;;;-0.70;99.90;;;;;;7395691;19;20163;-79
2022/12/13 07:05:09;;;;;;;17.13;9.30;;;-0.70;99.90;;;;;;7398854;19;20123;-79
2022/12/13 07:07:34;;;;;;;17.57;8.90;;;-0.60;99.90;;;;;;7397642;19;20133;-78
2022/12/13 07:10:00;;;;;;;20.17;10.53;;;-0.50;99.90;;;;;;7397174;19;20130;-79
2022/12/13 07:12:26;;;;;;;18.87;9.67;;;-0.40;99.90;;;;;;7397961;19;20913;-80
2022/12/13 07:14:53;;;;;;;18.40;10.13;;;-0.50;99.90;;;;;;7394591;19;20130;-79
2022/12/13 07:17:20;;;;;;;20.27;10.53;;;-0.50;99.90;;;;;;7396060;19;20134;-79
2022/12/13 07:19:49;;;;;;;17.70;9.37;;;-0.50;99.90;;;;;;7395243;19;20154;-77
2022/12/13 07:22:15;;;;;;;17.87;9.67;;;-0.40;99.90;;;;;;7398088;19;20138;-77
2022/12/13 07:24:41;;;;;;;18.10;9.90;;;-0.40;99.90;;;;;;7395111;19;20479;-77
2022/12/13 07:27:07;;;;;;;18.73;10.50;;;-0.50;99.90;;;;;;7404503;19;20138;-77
2022/12/13 07:29:32;;;;;;;21.47;11.23;;;-0.50;99.90;;;;;;7392764;19;20233;-78
2022/12/13 07:31:58;;;;;;;19.60;9.77;;;-0.70;99.90;;;;;;7394495;19;20706;-79
2022/12/13 07:34:24;;;;;;;18.53;10.37;;;-0.90;99.90;;;;;;7390825;19;20149;-78
2022/12/13 07:36:50;;;;;;;20.37;10.27;;;-0.80;99.90;;;;;;7393133;19;20138;-79
2022/12/13 07:39:16;;;;;;;16.27;9.80;;;-0.70;99.90;;;;;;7390456;19;20206;-77
2022/12/13 07:41:41;;;;;;;21.47;10.30;;;-0.50;99.90;;;;;;7389639;19;20131;-77
2022/12/13 07:44:07;;;;;;;20.83;10.47;;;-0.50;99.90;;;;;;7394681;19;20150;-79
2022/12/13 07:46:33;;;;;;;20.67;11.23;;;-0.50;99.90;;;;;;7396150;19;20130;-78
2022/12/13 07:49:01;;;;;;;20.93;11.23;;;-0.60;99.90;;;;;;7395531;19;20135;-78
2022/12/13 07:51:27;;;;;;;23.27;10.07;;;-0.60;99.90;;;;;;7393844;19;20149;-76
2022/12/13 07:53:53;;;;;;;26.27;10.93;;;-0.60;99.90;;;;;;7393834;19;20222;-79
2022/12/13 07:56:19;;;;;;;18.23;10.33;;;-1.10;99.90;;;;;;7391170;19;20955;-78
2022/12/13 07:58:46;;;;;;;16.13;9.80;;;-0.90;99.90;;;;;;7391793;19;20627;-78
2022/12/13 08:01:12;;;;;;;18.80;10.17;;;-1.00;99.90;;;;;;7389158;19;20142;-75
2022/12/13 08:03:38;;;;;;;14.70;8.80;;;-1.00;99.90;;;;;;7394977;19;20510;-77
2022/12/13 08:06:10;;;;;;;21.63;10.63;;;-1.00;99.90;;;;;;7394031;19;20150;-78
2022/12/13 08:08:36;;;;;;;18.27;9.97;;;-0.70;99.90;;;;;;7393831;19;20190;-78
2022/12/13 08:11:08;;;;;;;21.10;10.80;;;-0.90;99.90;;;;;;7392778;19;20150;-78
2022/12/13 08:13:35;;;;;;;28.07;10.57;;;-0.60;99.90;;;;;;7395583;19;20142;-77
2022/12/13 08:16:03;;;;;;;22.13;10.00;;;-0.50;99.90;;;;;;7394426;19;20218;-79
2022/12/13 08:18:30;;;;;;;17.97;10.13;;;-0.30;99.90;;;;;;7388823;19;20135;-77
2022/12/13 08:21:03;;;;;;;17.23;10.23;;;-0.20;99.90;;;;;;7394341;19;20507;-77
2022/12/13 08:23:31;;;;;;;19.10;10.00;;;-0.30;99.90;;;;;;7392249;19;20523;-77
2022/12/13 08:25:58;;;;;;;19.33;10.30;;;-0.40;99.90;;;;;;7393030;19;20162;-78
2022/12/13 08:28:24;;;;;;;17.03;9.87;;;-0.50;99.90;;;;;;7393289;19;20159;-77
2022/12/13 08:30:50;;;;;;;20.20;10.10;;;-0.40;99.90;;;;;;7392714;19;20158;-78
2022/12/13 08:33:17;;;;;;;18.00;10.03;;;-0.40;99.90;;;;;;7392032;19;20165;-78
2022/12/13 08:35:45;;;;;;;23.07;10.30;;;-0.30;99.90;;;;;;7395181;19;20667;-81
2022/12/13 08:38:10;;;;;;;17.90;9.93;;;-0.20;99.90;;;;;;7390439;19;20168;-78
2022/12/13 08:40:36;;;;;;;17.67;10.50;;;-0.20;99.90;;;;;;7392803;19;20158;-78
2022/12/13 08:43:03;;;;;;;22.47;10.53;;;-0.10;99.90;;;;;;7390858;19;20498;-78
2022/12/13 08:45:30;;;;;;;18.23;10.07;;;0.00;99.90;;;;;;7389815;19;20601;-79
2022/12/13 08:47:58;;;;;;;18.33;10.43;;;0.00;99.90;;;;;;7392679;19;20158;-74
2022/12/13 08:50:24;;;;;;;17.50;10.33;;;0.00;99.90;;;;;;7393365;19;20160;-77
2022/12/13 08:52:51;;;;;;;20.17;9.83;;;0.00;99.90;;;;;;7391564;19;20158;-79
2022/12/13 08:55:17;;;;;;;23.43;10.60;;;0.00;99.90;;;;;;7396772;19;20157;-79
2022/12/13 08:57:44;;;;;;;16.20;9.43;;;0.00;99.90;;;;;;7390670;19;20163;-77
2022/12/13 09:00:17;;;;;;;19.03;9.93;;;0.00;99.90;;;;;;7393400;19;20145;-77
2022/12/13 09:02:43;;;;;;;22.57;9.97;;;0.00;99.90;;;;;;7400829;19;20139;-78
2022/12/13 09:05:09;;;;;;;17.50;9.43;;;0.20;99.90;;;;;;7395110;19;20178;-78
2022/12/13 09:07:38;;;;;;;22.03;9.63;;;0.10;99.90;;;;;;7390904;19;20171;-79
2022/12/13 09:10:04;;;;;;;17.07;9.70;;;0.20;99.90;;;;;;7390663;19;20141;-79
2022/12/13 09:12:30;;;;;;;13.47;7.97;;;0.30;99.90;;;;;;7391233;19;20133;-77
2022/12/13 09:14:56;;;;;;;17.93;9.27;;;0.30;99.90;;;;;;7402849;19;20178;-77
2022/12/13 09:17:21;;;;;;;15.20;8.57;;;0.20;99.90;;;;;;7390684;19;20167;-79
2022/12/13 09:19:47;;;;;;;17.40;8.63;;;0.20;99.90;;;;;;7391294;19;20605;-77
2022/12/13 09:22:13;;;;;;;17.60;9.70;;;0.20;99.90;;;;;;7390707;19;20155;-78
2022/12/13 09:24:39;;;;;;;15.23;8.73;;;0.30;99.90;;;;;;7388709;19;20736;-77
2022/12/13 09:27:08;;;;;;;16.10;9.00;;;0.30;99.90;;;;;;7391679;19;20153;-78
2022/12/13 09:29:34;;;;;;;18.87;8.97;;;0.50;99.90;;;;;;7391467;19;20183;-77
2022/12/13 09:32:00;;;;;;;13.13;7.70;;;0.30;99.90;;;;;;7398308;19;20161;-79
2022/12/13 09:34:26;;;;;;;14.27;7.83;;;0.40;99.90;;;;;;7391123;19;20162;-79
2022/12/13 09:36:54;;;;;;;15.13;8.33;;;0.40;99.90;;;;;;7388032;19;20154;-79
2022/12/13 09:39:19;;;;;;;14.03;8.03;;;0.30;99.90;;;;;;7388827;19;20134;-78
2022/12/13 09:41:49;;;;;;;16.20;8.70;;;0.30;99.90;;;;;;7389982;19;20497;-80
2022/12/13 09:44:32;;;;;;;14.73;8.80;;;0.40;99.90;;;;;;7390707;19;20150;-79
2022/12/13 09:47:04;;;;;;;13.73;7.47;;;0.40;99.90;;;;;;7390501;19;20146;-79
2022/12/13 09:49:39;;;;;;;15.40;8.37;;;0.50;99.90;;;;;;7388675;19;20158;-77
2022/12/13 09:52:09;;;;;;;17.43;8.67;;;0.40;99.90;;;;;;7389937;19;20141;-80
2022/12/13 09:54:34;;;;;;;17.77;8.07;;;0.40;99.90;;;;;;7391633;19;20142;-80
2022/12/13 09:57:00;;;;;;;15.33;8.63;;;0.50;99.90;;;;;;7390102;19;20126;-78
2022/12/13 09:59:32;;;;;;;17.43;8.07;;;0.50;99.90;;;;;;7389741;19;20198;-78
2022/12/13 10:02:16;;;;;;;14.90;8.60;;;0.60;99.90;;;;;;7385006;19;20127;-78
2022/12/13 10:04:42;;;;;;;14.73;8.03;;;1.00;99.90;;;;;;7393467;19;20127;-79
2022/12/13 10:07:16;;;;;;;13.97;7.67;;;1.20;99.90;;;;;;7394566;19;20135;-79
2022/12/13 10:09:43;;;;;;;17.27;8.47;;;1.10;99.90;;;;;;7390089;19;20134;-77
2022/12/13 10:12:13;;;;;;;13.60;7.63;;;1.00;99.90;;;;;;7387109;19;20157;-79
2022/12/13 10:14:46;;;;;;;17.70;8.23;;;1.00;99.90;;;;;;7387204;19;20158;-80
2022/12/13 10:17:18;;;;;;;13.63;7.80;;;1.00;99.90;;;;;;7389945;19;20131;-80
2022/12/13 10:19:46;;;;;;;14.43;7.87;;;1.00;99.90;;;;;;7391569;19;20152;-78
2022/12/13 10:22:16;;;;;;;15.00;8.20;;;1.00;99.90;;;;;;7392028;19;20131;-80
2022/12/13 10:25:02;;;;;;;14.33;7.63;;;0.90;99.90;;;;;;7392603;19;20139;-80
2022/12/13 10:27:32;;;;;;;15.00;8.27;;;1.00;99.90;;;;;;7389967;19;20526;-78
2022/12/13 10:30:09;;;;;;;13.23;7.50;;;1.00;99.90;;;;;;7388564;19;20144;-78
2022/12/13 10:32:53;;;;;;;17.10;7.90;;;1.00;99.90;;;;;;7388382;19;20149;-79
2022/12/13 10:35:39;;;;;;;14.83;7.60;;;1.10;99.90;;;;;;7390556;19;20130;-78
2022/12/13 10:38:13;;;;;;;12.77;7.93;;;1.10;99.90;;;;;;7390702;19;20147;-79
2022/12/13 10:40:45;;;;;;;14.57;7.97;;;1.20;99.90;;;;;;7391595;19;20218;-79
2022/12/13 10:43:30;;;;;;;13.77;7.63;;;1.20;99.90;;;;;;7391974;19;20148;-79
2022/12/13 10:45:58;;;;;;;15.33;7.80;;;1.20;99.90;;;;;;7392500;19;20131;-79
2022/12/13 10:48:29;;;;;;;18.13;9.80;;;1.20;99.90;;;;;;7394465;19;20145;-77
2022/12/13 10:51:09;;;;;;;15.97;7.20;;;1.20;99.90;;;;;;7393705;19;20179;-77
2022/12/13 10:53:48;;;;;;;15.50;8.00;;;1.20;99.90;;;;;;7392883;19;20154;-82
2022/12/13 10:56:16;;;;;;;13.23;7.20;;;1.30;99.90;;;;;;7390649;19;20182;-80
2022/12/13 10:58:48;;;;;;;14.90;7.53;;;1.40;99.90;;;;;;7392733;19;20611;-77
2022/12/13 11:01:27;;;;;;;15.67;6.93;;;1.40;99.90;;;;;;7399916;19;20150;-77
2022/12/13 11:04:03;;;;;;;14.23;7.53;;;1.50;99.90;;;;;;7397576;19;20154;-78
2022/12/13 11:06:42;;;;;;;16.23;8.17;;;1.50;99.90;;;;;;7398235;19;20631;-78
2022/12/13 11:09:35;;;;;;;12.70;7.30;;;1.50;99.90;;;;;;7399060;19;20538;-81
2022/12/13 11:12:10;;;;;;;15.20;7.67;;;1.50;99.90;;;;;;7395741;19;20667;-77
2022/12/13 11:14:45;;;;;;;13.03;7.23;;;1.50;99.90;;;;;;7397080;19;20138;-77
2022/12/13 11:17:20;;;;;;;13.20;7.13;;;1.50;99.90;;;;;;7396002;19;20167;-78
2022/12/13 11:19:53;;;;;;;15.17;7.30;;;1.60;99.90;;;;;;7401046;19;20154;-77
2022/12/13 11:22:28;;;;;;;15.37;7.83;;;1.60;99.90;;;;;;7402837;19;20227;-79
2022/12/13 11:25:21;;;;;;;13.40;7.57;;;1.50;99.90;;;;;;7399759;19;20142;-78
2022/12/13 11:27:53;;;;;;;12.43;7.17;;;1.40;99.90;;;;;;7396907;19;20514;-78
2022/12/13 11:30:45;;;;;;;13.33;7.10;;;1.40;99.90;;;;;;7396098;19;20143;-79
2022/12/13 11:33:25;;;;;;;15.97;7.13;;;1.50;99.90;;;;;;7395461;19;20162;-78
2022/12/13 11:36:32;;;;;;;17.87;7.77;;;1.10;99.90;;;;;;7396049;19;20135;-78
2022/12/13 11:39:18;;;;;;;12.73;7.07;;;1.40;99.90;;;;;;7389572;19;20147;-79
2022/12/13 11:42:00;;;;;;;16.77;8.50;;;1.60;99.90;;;;;;7396737;19;20627;-79
2022/12/13 11:44:50;;;;;;;13.30;7.30;;;1.50;99.90;;;;;;7396069;19;20157;-79
2022/12/13 11:47:29;;;;;;;14.83;7.53;;;1.70;99.90;;;;;;7399139;19;20127;-78
2022/12/13 11:49:57;;;;;;;12.47;7.10;;;1.70;99.90;;;;;;7397986;19;20158;-79
2022/12/13 11:52:39;;;;;;;16.17;7.43;;;1.80;99.90;;;;;;7397066;19;20150;-80
2022/12/13 11:55:17;;;;;;;16.87;7.87;;;1.80;99.90;;;;;;7397821;19;20181;-79
2022/12/13 11:58:03;;;;;;;13.73;7.53;;;1.90;99.90;;;;;;7394138;19;20150;-81
2022/12/13 12:00:44;;;;;;;15.87;7.70;;;1.90;99.90;;;;;;7397052;19;20165;-81
2022/12/13 12:03:20;;;;;;;11.53;6.73;;;2.00;99.90;;;;;;7393299;19;20579;-80
2022/12/13 12:06:20;;;;;;;15.27;7.47;;;1.90;99.90;;;;;;7397190;19;20134;-79
2022/12/13 12:09:01;;;;;;;15.70;7.47;;;2.00;99.90;;;;;;7393764;19;20142;-79
2022/12/13 12:11:45;;;;;;;14.23;7.27;;;1.90;99.90;;;;;;7393630;19;20138;-80
2022/12/13 12:14:23;;;;;;;14.17;7.57;;;2.00;99.90;;;;;;7394555;19;20142;-80
2022/12/13 12:16:54;;;;;;;14.97;7.40;;;2.10;99.90;;;;;;7393827;19;20258;-82
2022/12/13 12:19:23;;;;;;;13.97;7.03;;;2.10;99.90;;;;;;7401040;19;20151;-82
2022/12/13 12:22:20;;;;;;;15.33;7.23;;;2.00;99.90;;;;;;7396552;19;20154;-81
2022/12/13 12:24:59;;;;;;;11.67;7.43;;;1.90;99.90;;;;;;7397932;19;20159;-82
2022/12/13 12:27:29;;;;;;;11.57;7.10;;;2.10;99.90;;;;;;7395215;19;20168;-81
2022/12/13 12:30:07;;;;;;;16.27;7.07;;;2.10;99.90;;;;;;7394204;19;20241;-83
2022/12/13 12:32:45;;;;;;;16.00;7.50;;;2.10;99.90;;;;;;7395554;19;20562;-83
2022/12/13 12:35:22;;;;;;;12.90;7.30;;;2.10;99.90;;;;;;7397882;19;20141;-82
2022/12/13 12:38:15;;;;;;;11.37;7.03;;;2.20;99.90;;;;;;7394804;19;20605;-81
2022/12/13 12:41:18;;;;;;;15.57;7.97;;;2.30;99.90;;;;;;7400738;19;20155;-82
2022/12/13 12:43:53;;;;;;;16.37;7.40;;;2.30;99.90;;;;;;7395635;19;20130;-80
2022/12/13 12:46:59;;;;;;;16.77;8.10;;;2.30;99.90;;;;;;7396356;19;20171;-83
2022/12/13 12:49:37;;;;;;;13.67;7.90;;;2.30;99.90;;;;;;7395930;19;20268;-82
2022/12/13 12:52:14;;;;;;;16.40;8.93;;;2.30;99.90;;;;;;7391595;19;20255;-80
2022/12/13 12:55:04;;;;;;;14.63;7.37;;;2.40;99.90;;;;;;7396580;19;20193;-80
2022/12/13 12:57:53;;;;;;;14.37;7.57;;;2.40;99.90;;;;;;7394551;19;20598;-80